sensor_id;sensor_type;location;lat;lon;timestamp;temperature;humidity
9373;DHT22;10838;52.350;9.790;2023-11-21T00:01:43;8.80;97.30
9373;DHT22;10838;52.350;9.790;2023-11-21T00:04:11;8.70;97.30
9373;DHT22;10838;52.350;9.790;2023-11-21T00:06:37;8.70;97.30
9373;DHT22;10838;52.350;9.790;2023-11-21T00:09:04;8.70;97.30
9373;DHT22;10838;52.350;9.790;2023-11-21T00:11:33;8.70;97.30
9373;DHT22;10838;52.350;9.790;2023-11-21T00:14:00;8.70;97.30
9373;DHT22;10838;52.350;9.790;2023-11-21T00:16:26;8.70;97.30
9373;DHT22;10838;52.350;9.790;2023-11-21T00:18:53;8.70;97.30
9373;DHT22;10838;52.350;9.790;2023-11-21T00:21:21;8.70;97.40
9373;DHT22;10838;52.350;9.790;2023-11-21T00:23:47;8.70;97.40
9373;DHT22;10838;52.350;9.790;2023-11-21T00:26:14;8.70;97.40
9373;DHT22;10838;52.350;9.790;2023-11-21T00:28:41;8.70;97.40
9373;DHT22;10838;52.350;9.790;2023-11-21T00:31:07;8.70;97.40
9373;DHT22;10838;52.350;9.790;2023-11-21T00:33:34;8.70;97.40
9373;DHT22;10838;52.350;9.790;2023-11-21T00:36:00;8.70;97.40
9373;DHT22;10838;52.350;9.790;2023-11-21T00:38:28;8.70;97.40
9373;DHT22;10838;52.350;9.790;2023-11-21T00:40:55;8.70;97.40
9373;DHT22;10838;52.350;9.790;2023-11-21T00:43:22;8.70;97.40
9373;DHT22;10838;52.350;9.790;2023-11-21T00:45:49;8.70;97.40
9373;DHT22;10838;52.350;9.790;2023-11-21T00:48:16;8.70;97.40
9373;DHT22;10838;52.350;9.790;2023-11-21T00:50:43;8.70;97.40
9373;DHT22;10838;52.350;9.790;2023-11-21T00:53:10;8.60;97.40
9373;DHT22;10838;52.350;9.790;2023-11-21T00:55:38;8.60;97.40
9373;DHT22;10838;52.350;9.790;2023-11-21T00:58:05;8.60;97.40
9373;DHT22;10838;52.350;9.790;2023-11-21T01:00:32;8.60;97.40
9373;DHT22;10838;52.350;9.790;2023-11-21T01:02:59;8.60;97.40
9373;DHT22;10838;52.350;9.790;2023-11-21T01:05:26;8.60;97.40
9373;DHT22;10838;52.350;9.790;2023-11-21T01:07:53;8.60;97.40
9373;DHT22;10838;52.350;9.790;2023-11-21T01:10:19;8.60;97.40
9373;DHT22;10838;52.350;9.790;2023-11-21T01:12:47;8.60;97.40
9373;DHT22;10838;52.350;9.790;2023-11-21T01:15:14;8.60;97.40
9373;DHT22;10838;52.350;9.790;2023-11-21T01:17:41;8.60;97.40
9373;DHT22;10838;52.350;9.790;2023-11-21T01:20:09;8.60;97.40
9373;DHT22;10838;52.350;9.790;2023-11-21T01:22:38;8.60;97.40
9373;DHT22;10838;52.350;9.790;2023-11-21T01:25:05;8.60;97.40
9373;DHT22;10838;52.350;9.790;2023-11-21T01:27:33;8.70;97.40
9373;DHT22;10838;52.350;9.790;2023-11-21T01:30:01;8.60;97.40
9373;DHT22;10838;52.350;9.790;2023-11-21T01:32:27;8.60;97.40
9373;DHT22;10838;52.350;9.790;2023-11-21T01:34:54;8.60;97.40
9373;DHT22;10838;52.350;9.790;2023-11-21T01:37:21;8.60;97.40
9373;DHT22;10838;52.350;9.790;2023-11-21T01:39:48;8.60;97.50
9373;DHT22;10838;52.350;9.790;2023-11-21T01:42:15;8.60;97.40
9373;DHT22;10838;52.350;9.790;2023-11-21T01:44:41;8.60;97.40
9373;DHT22;10838;52.350;9.790;2023-11-21T01:47:09;8.60;97.40
9373;DHT22;10838;52.350;9.790;2023-11-21T01:49:37;8.60;97.40
9373;DHT22;10838;52.350;9.790;2023-11-21T01:52:04;8.70;97.50
9373;DHT22;10838;52.350;9.790;2023-11-21T01:54:31;8.70;97.50
9373;DHT22;10838;52.350;9.790;2023-11-21T01:56:58;8.60;97.50
9373;DHT22;10838;52.350;9.790;2023-11-21T01:59:31;8.70;97.50
9373;DHT22;10838;52.350;9.790;2023-11-21T02:02:00;8.60;97.50
9373;DHT22;10838;52.350;9.790;2023-11-21T02:04:28;8.70;97.50
9373;DHT22;10838;52.350;9.790;2023-11-21T02:06:54;8.60;97.50
9373;DHT22;10838;52.350;9.790;2023-11-21T02:09:24;8.60;97.50
9373;DHT22;10838;52.350;9.790;2023-11-21T02:11:52;8.70;97.50
9373;DHT22;10838;52.350;9.790;2023-11-21T02:14:19;8.70;97.50
9373;DHT22;10838;52.350;9.790;2023-11-21T02:16:48;8.70;97.50
9373;DHT22;10838;52.350;9.790;2023-11-21T02:19:18;8.70;97.50
9373;DHT22;10838;52.350;9.790;2023-11-21T02:21:47;8.70;97.50
9373;DHT22;10838;52.350;9.790;2023-11-21T02:24:16;8.70;97.50
9373;DHT22;10838;52.350;9.790;2023-11-21T02:26:43;8.70;97.50
9373;DHT22;10838;52.350;9.790;2023-11-21T02:29:11;8.70;97.60
9373;DHT22;10838;52.350;9.790;2023-11-21T02:31:38;8.70;97.50
9373;DHT22;10838;52.350;9.790;2023-11-21T02:34:13;8.70;97.60
9373;DHT22;10838;52.350;9.790;2023-11-21T02:36:40;8.70;97.60
9373;DHT22;10838;52.350;9.790;2023-11-21T02:39:08;8.70;97.60
9373;DHT22;10838;52.350;9.790;2023-11-21T02:41:36;8.70;97.60
9373;DHT22;10838;52.350;9.790;2023-11-21T02:44:03;8.70;97.60
9373;DHT22;10838;52.350;9.790;2023-11-21T02:46:31;8.70;97.60
9373;DHT22;10838;52.350;9.790;2023-11-21T02:48:59;8.70;97.60
9373;DHT22;10838;52.350;9.790;2023-11-21T02:51:25;8.70;97.60
9373;DHT22;10838;52.350;9.790;2023-11-21T02:53:52;8.70;97.60
9373;DHT22;10838;52.350;9.790;2023-11-21T02:56:19;8.70;97.60
9373;DHT22;10838;52.350;9.790;2023-11-21T02:58:47;8.70;97.60
9373;DHT22;10838;52.350;9.790;2023-11-21T03:01:13;8.70;97.60
9373;DHT22;10838;52.350;9.790;2023-11-21T03:03:40;8.70;97.60
9373;DHT22;10838;52.350;9.790;2023-11-21T03:06:07;8.70;97.60
9373;DHT22;10838;52.350;9.790;2023-11-21T03:08:34;8.70;97.60
9373;DHT22;10838;52.350;9.790;2023-11-21T03:11:01;8.70;97.60
9373;DHT22;10838;52.350;9.790;2023-11-21T03:13:29;8.70;97.60
9373;DHT22;10838;52.350;9.790;2023-11-21T03:15:57;8.80;97.60
9373;DHT22;10838;52.350;9.790;2023-11-21T03:18:23;8.80;97.60
9373;DHT22;10838;52.350;9.790;2023-11-21T03:20:52;8.80;97.60
9373;DHT22;10838;52.350;9.790;2023-11-21T03:23:18;8.80;97.60
9373;DHT22;10838;52.350;9.790;2023-11-21T03:25:45;8.80;97.60
9373;DHT22;10838;52.350;9.790;2023-11-21T03:28:12;8.80;97.60
9373;DHT22;10838;52.350;9.790;2023-11-21T03:30:38;8.80;97.60
9373;DHT22;10838;52.350;9.790;2023-11-21T03:33:06;8.80;97.60
9373;DHT22;10838;52.350;9.790;2023-11-21T03:35:33;8.80;97.60
9373;DHT22;10838;52.350;9.790;2023-11-21T03:37:59;8.80;97.60
9373;DHT22;10838;52.350;9.790;2023-11-21T03:40:26;8.80;97.60
9373;DHT22;10838;52.350;9.790;2023-11-21T03:42:53;8.90;97.60
9373;DHT22;10838;52.350;9.790;2023-11-21T03:45:19;8.80;97.60
9373;DHT22;10838;52.350;9.790;2023-11-21T03:47:46;8.90;97.70
9373;DHT22;10838;52.350;9.790;2023-11-21T03:50:14;8.90;97.70
9373;DHT22;10838;52.350;9.790;2023-11-21T03:52:41;8.90;97.70
9373;DHT22;10838;52.350;9.790;2023-11-21T03:55:08;8.90;97.70
9373;DHT22;10838;52.350;9.790;2023-11-21T03:57:35;8.90;97.70
9373;DHT22;10838;52.350;9.790;2023-11-21T04:00:03;8.90;97.70
9373;DHT22;10838;52.350;9.790;2023-11-21T04:02:33;9.00;97.70
9373;DHT22;10838;52.350;9.790;2023-11-21T04:05:00;9.00;97.70
9373;DHT22;10838;52.350;9.790;2023-11-21T04:07:28;9.00;97.70
9373;DHT22;10838;52.350;9.790;2023-11-21T04:09:55;9.00;97.70
9373;DHT22;10838;52.350;9.790;2023-11-21T04:12:22;9.00;97.70
9373;DHT22;10838;52.350;9.790;2023-11-21T04:14:48;9.00;97.70
9373;DHT22;10838;52.350;9.790;2023-11-21T04:17:18;9.00;97.70
9373;DHT22;10838;52.350;9.790;2023-11-21T04:19:44;9.00;97.80
9373;DHT22;10838;52.350;9.790;2023-11-21T04:22:11;9.00;97.80
9373;DHT22;10838;52.350;9.790;2023-11-21T04:24:39;9.00;97.80
9373;DHT22;10838;52.350;9.790;2023-11-21T04:27:06;9.10;97.80
9373;DHT22;10838;52.350;9.790;2023-11-21T04:29:33;9.10;97.80
9373;DHT22;10838;52.350;9.790;2023-11-21T04:32:00;9.10;97.80
9373;DHT22;10838;52.350;9.790;2023-11-21T04:34:28;9.10;97.80
9373;DHT22;10838;52.350;9.790;2023-11-21T04:36:56;9.10;97.80
9373;DHT22;10838;52.350;9.790;2023-11-21T04:39:23;9.10;97.80
9373;DHT22;10838;52.350;9.790;2023-11-21T04:41:52;9.10;97.80
9373;DHT22;10838;52.350;9.790;2023-11-21T04:44:18;9.10;97.80
9373;DHT22;10838;52.350;9.790;2023-11-21T04:46:45;9.10;97.80
9373;DHT22;10838;52.350;9.790;2023-11-21T04:49:12;9.10;97.80
9373;DHT22;10838;52.350;9.790;2023-11-21T04:51:38;9.10;97.80
9373;DHT22;10838;52.350;9.790;2023-11-21T04:54:05;9.10;97.80
9373;DHT22;10838;52.350;9.790;2023-11-21T04:56:32;9.10;97.90
9373;DHT22;10838;52.350;9.790;2023-11-21T04:59:00;9.10;97.90
9373;DHT22;10838;52.350;9.790;2023-11-21T05:01:26;9.10;97.90
9373;DHT22;10838;52.350;9.790;2023-11-21T05:03:53;9.20;97.90
9373;DHT22;10838;52.350;9.790;2023-11-21T05:06:20;9.20;97.90
9373;DHT22;10838;52.350;9.790;2023-11-21T05:08:46;9.20;97.90
9373;DHT22;10838;52.350;9.790;2023-11-21T05:11:23;9.20;97.90
9373;DHT22;10838;52.350;9.790;2023-11-21T05:13:50;9.20;97.90
9373;DHT22;10838;52.350;9.790;2023-11-21T05:16:18;9.20;97.90
9373;DHT22;10838;52.350;9.790;2023-11-21T05:18:45;9.20;97.90
9373;DHT22;10838;52.350;9.790;2023-11-21T05:21:12;9.20;97.90
9373;DHT22;10838;52.350;9.790;2023-11-21T05:23:38;9.20;97.90
9373;DHT22;10838;52.350;9.790;2023-11-21T05:26:05;9.30;98.00
9373;DHT22;10838;52.350;9.790;2023-11-21T05:28:32;9.20;98.00
9373;DHT22;10838;52.350;9.790;2023-11-21T05:30:59;9.20;98.00
9373;DHT22;10838;52.350;9.790;2023-11-21T05:33:28;9.30;98.00
9373;DHT22;10838;52.350;9.790;2023-11-21T05:35:55;9.20;98.00
9373;DHT22;10838;52.350;9.790;2023-11-21T05:38:21;9.30;98.00
9373;DHT22;10838;52.350;9.790;2023-11-21T05:40:48;9.30;98.00
9373;DHT22;10838;52.350;9.790;2023-11-21T05:43:14;9.30;98.00
9373;DHT22;10838;52.350;9.790;2023-11-21T05:45:41;9.30;98.00
9373;DHT22;10838;52.350;9.790;2023-11-21T05:48:08;9.30;98.00
9373;DHT22;10838;52.350;9.790;2023-11-21T05:50:36;9.30;98.00
9373;DHT22;10838;52.350;9.790;2023-11-21T05:53:03;9.30;98.00
9373;DHT22;10838;52.350;9.790;2023-11-21T05:55:30;9.30;98.00
9373;DHT22;10838;52.350;9.790;2023-11-21T05:57:56;9.30;98.00
9373;DHT22;10838;52.350;9.790;2023-11-21T06:00:23;9.40;98.10
9373;DHT22;10838;52.350;9.790;2023-11-21T06:02:52;9.40;98.10
9373;DHT22;10838;52.350;9.790;2023-11-21T06:05:20;9.40;98.10
9373;DHT22;10838;52.350;9.790;2023-11-21T06:07:50;9.40;98.10
9373;DHT22;10838;52.350;9.790;2023-11-21T06:10:16;9.40;98.10
9373;DHT22;10838;52.350;9.790;2023-11-21T06:12:45;9.40;98.10
9373;DHT22;10838;52.350;9.790;2023-11-21T06:15:12;9.40;98.10
9373;DHT22;10838;52.350;9.790;2023-11-21T06:17:40;9.40;98.10
9373;DHT22;10838;52.350;9.790;2023-11-21T06:20:09;9.40;98.10
9373;DHT22;10838;52.350;9.790;2023-11-21T06:22:40;9.40;98.10
9373;DHT22;10838;52.350;9.790;2023-11-21T06:25:09;9.40;98.10
9373;DHT22;10838;52.350;9.790;2023-11-21T06:27:39;9.40;98.10
9373;DHT22;10838;52.350;9.790;2023-11-21T06:30:07;9.40;98.10
9373;DHT22;10838;52.350;9.790;2023-11-21T06:32:34;9.40;98.10
9373;DHT22;10838;52.350;9.790;2023-11-21T06:35:01;9.40;98.10
9373;DHT22;10838;52.350;9.790;2023-11-21T06:37:30;9.50;98.10
9373;DHT22;10838;52.350;9.790;2023-11-21T06:39:57;9.50;98.10
9373;DHT22;10838;52.350;9.790;2023-11-21T06:42:26;9.50;98.10
9373;DHT22;10838;52.350;9.790;2023-11-21T06:44:54;9.50;98.10
9373;DHT22;10838;52.350;9.790;2023-11-21T06:47:22;9.50;98.10
9373;DHT22;10838;52.350;9.790;2023-11-21T06:49:50;9.40;98.10
9373;DHT22;10838;52.350;9.790;2023-11-21T06:52:17;9.50;98.10
9373;DHT22;10838;52.350;9.790;2023-11-21T06:54:43;9.40;98.00
9373;DHT22;10838;52.350;9.790;2023-11-21T06:57:10;9.40;98.00
9373;DHT22;10838;52.350;9.790;2023-11-21T06:59:38;9.30;98.00
9373;DHT22;10838;52.350;9.790;2023-11-21T07:02:05;9.20;98.00
9373;DHT22;10838;52.350;9.790;2023-11-21T07:04:33;9.20;97.90
9373;DHT22;10838;52.350;9.790;2023-11-21T07:06:59;9.10;97.90
9373;DHT22;10838;52.350;9.790;2023-11-21T07:09:26;9.10;97.90
9373;DHT22;10838;52.350;9.790;2023-11-21T07:11:53;9.00;97.90
9373;DHT22;10838;52.350;9.790;2023-11-21T07:14:19;9.00;97.90
9373;DHT22;10838;52.350;9.790;2023-11-21T07:16:48;9.00;97.90
9373;DHT22;10838;52.350;9.790;2023-11-21T07:19:15;8.90;97.80
9373;DHT22;10838;52.350;9.790;2023-11-21T07:21:41;8.90;97.90
9373;DHT22;10838;52.350;9.790;2023-11-21T07:24:08;8.80;97.80
9373;DHT22;10838;52.350;9.790;2023-11-21T07:26:36;8.80;97.80
9373;DHT22;10838;52.350;9.790;2023-11-21T07:29:04;8.80;97.70
9373;DHT22;10838;52.350;9.790;2023-11-21T07:31:31;8.70;97.70
9373;DHT22;10838;52.350;9.790;2023-11-21T07:34:01;8.60;97.70
9373;DHT22;10838;52.350;9.790;2023-11-21T07:36:27;8.60;97.70
9373;DHT22;10838;52.350;9.790;2023-11-21T07:38:54;8.60;97.70
9373;DHT22;10838;52.350;9.790;2023-11-21T07:41:21;8.50;97.70
9373;DHT22;10838;52.350;9.790;2023-11-21T07:43:47;8.50;97.70
9373;DHT22;10838;52.350;9.790;2023-11-21T07:46:14;8.50;97.70
9373;DHT22;10838;52.350;9.790;2023-11-21T07:48:42;8.50;97.70
9373;DHT22;10838;52.350;9.790;2023-11-21T07:51:10;8.40;97.70
9373;DHT22;10838;52.350;9.790;2023-11-21T07:53:38;8.40;97.70
9373;DHT22;10838;52.350;9.790;2023-11-21T07:56:06;8.40;97.70
9373;DHT22;10838;52.350;9.790;2023-11-21T07:58:34;8.40;97.70
9373;DHT22;10838;52.350;9.790;2023-11-21T08:01:01;8.40;97.70
9373;DHT22;10838;52.350;9.790;2023-11-21T08:03:28;8.40;97.70
9373;DHT22;10838;52.350;9.790;2023-11-21T08:05:55;8.40;97.70
9373;DHT22;10838;52.350;9.790;2023-11-21T08:08:24;8.40;97.70
9373;DHT22;10838;52.350;9.790;2023-11-21T08:10:51;8.40;97.70
9373;DHT22;10838;52.350;9.790;2023-11-21T08:13:22;8.30;97.70
9373;DHT22;10838;52.350;9.790;2023-11-21T08:15:48;8.40;97.70
9373;DHT22;10838;52.350;9.790;2023-11-21T08:18:15;8.30;97.70
9373;DHT22;10838;52.350;9.790;2023-11-21T08:20:43;8.30;97.70
9373;DHT22;10838;52.350;9.790;2023-11-21T08:23:13;8.30;97.70
9373;DHT22;10838;52.350;9.790;2023-11-21T08:25:42;8.30;97.70
9373;DHT22;10838;52.350;9.790;2023-11-21T08:28:09;8.30;97.60
9373;DHT22;10838;52.350;9.790;2023-11-21T08:30:36;8.30;97.60
9373;DHT22;10838;52.350;9.790;2023-11-21T08:33:03;8.20;97.60
9373;DHT22;10838;52.350;9.790;2023-11-21T08:35:29;8.20;97.60
9373;DHT22;10838;52.350;9.790;2023-11-21T08:37:56;8.20;97.60
9373;DHT22;10838;52.350;9.790;2023-11-21T08:40:22;8.20;97.60
9373;DHT22;10838;52.350;9.790;2023-11-21T08:42:52;8.20;97.60
9373;DHT22;10838;52.350;9.790;2023-11-21T08:45:19;8.20;97.60
9373;DHT22;10838;52.350;9.790;2023-11-21T08:47:46;8.20;97.60
9373;DHT22;10838;52.350;9.790;2023-11-21T08:50:13;8.20;97.60
9373;DHT22;10838;52.350;9.790;2023-11-21T08:52:41;8.20;97.60
9373;DHT22;10838;52.350;9.790;2023-11-21T08:55:08;8.20;97.60
9373;DHT22;10838;52.350;9.790;2023-11-21T08:57:38;8.20;97.60
9373;DHT22;10838;52.350;9.790;2023-11-21T09:00:08;8.20;97.60
9373;DHT22;10838;52.350;9.790;2023-11-21T09:02:37;8.20;97.60
9373;DHT22;10838;52.350;9.790;2023-11-21T09:05:04;8.20;97.60
9373;DHT22;10838;52.350;9.790;2023-11-21T09:07:31;8.20;97.60
9373;DHT22;10838;52.350;9.790;2023-11-21T09:09:58;8.30;97.60
9373;DHT22;10838;52.350;9.790;2023-11-21T09:12:24;8.30;97.50
9373;DHT22;10838;52.350;9.790;2023-11-21T09:14:51;8.30;97.60
9373;DHT22;10838;52.350;9.790;2023-11-21T09:17:19;8.30;97.50
9373;DHT22;10838;52.350;9.790;2023-11-21T09:19:46;8.30;97.50
9373;DHT22;10838;52.350;9.790;2023-11-21T09:22:16;8.30;97.50
9373;DHT22;10838;52.350;9.790;2023-11-21T09:24:43;8.30;97.50
9373;DHT22;10838;52.350;9.790;2023-11-21T09:27:10;8.40;97.50
9373;DHT22;10838;52.350;9.790;2023-11-21T09:29:36;8.30;97.40
9373;DHT22;10838;52.350;9.790;2023-11-21T09:32:04;8.30;97.40
9373;DHT22;10838;52.350;9.790;2023-11-21T09:34:33;8.40;97.40
9373;DHT22;10838;52.350;9.790;2023-11-21T09:37:01;8.30;97.40
9373;DHT22;10838;52.350;9.790;2023-11-21T09:39:31;8.40;97.40
9373;DHT22;10838;52.350;9.790;2023-11-21T09:42:04;8.40;97.30
9373;DHT22;10838;52.350;9.790;2023-11-21T09:44:44;8.40;97.30
9373;DHT22;10838;52.350;9.790;2023-11-21T09:47:14;8.40;97.30
9373;DHT22;10838;52.350;9.790;2023-11-21T09:49:44;8.40;97.30
9373;DHT22;10838;52.350;9.790;2023-11-21T09:52:18;8.40;97.30
9373;DHT22;10838;52.350;9.790;2023-11-21T09:54:49;8.40;97.20
9373;DHT22;10838;52.350;9.790;2023-11-21T09:57:16;8.40;97.20
9373;DHT22;10838;52.350;9.790;2023-11-21T09:59:45;8.40;97.20
9373;DHT22;10838;52.350;9.790;2023-11-21T10:02:11;8.40;97.20
9373;DHT22;10838;52.350;9.790;2023-11-21T10:04:39;8.40;97.10
9373;DHT22;10838;52.350;9.790;2023-11-21T10:07:07;8.40;97.10
9373;DHT22;10838;52.350;9.790;2023-11-21T10:09:35;8.40;97.10
9373;DHT22;10838;52.350;9.790;2023-11-21T10:12:04;8.40;97.10
9373;DHT22;10838;52.350;9.790;2023-11-21T10:14:34;8.40;97.10
9373;DHT22;10838;52.350;9.790;2023-11-21T10:17:03;8.50;97.10
9373;DHT22;10838;52.350;9.790;2023-11-21T10:19:31;8.50;97.10
9373;DHT22;10838;52.350;9.790;2023-11-21T10:21:58;8.50;97.10
9373;DHT22;10838;52.350;9.790;2023-11-21T10:24:28;8.50;97.10
9373;DHT22;10838;52.350;9.790;2023-11-21T10:26:54;8.50;97.10
9373;DHT22;10838;52.350;9.790;2023-11-21T10:29:21;8.50;97.10
9373;DHT22;10838;52.350;9.790;2023-11-21T10:31:49;8.60;97.10
9373;DHT22;10838;52.350;9.790;2023-11-21T10:34:17;8.50;97.10
9373;DHT22;10838;52.350;9.790;2023-11-21T10:36:44;8.60;97.10
9373;DHT22;10838;52.350;9.790;2023-11-21T10:39:14;8.60;97.00
9373;DHT22;10838;52.350;9.790;2023-11-21T10:41:45;8.60;97.00
9373;DHT22;10838;52.350;9.790;2023-11-21T10:44:14;8.60;96.90
9373;DHT22;10838;52.350;9.790;2023-11-21T10:46:45;8.50;96.80
9373;DHT22;10838;52.350;9.790;2023-11-21T10:49:16;8.50;96.70
9373;DHT22;10838;52.350;9.790;2023-11-21T10:51:43;8.50;96.70
9373;DHT22;10838;52.350;9.790;2023-11-21T10:54:10;8.50;96.70
9373;DHT22;10838;52.350;9.790;2023-11-21T10:56:38;8.50;96.70
9373;DHT22;10838;52.350;9.790;2023-11-21T10:59:10;8.50;96.70
9373;DHT22;10838;52.350;9.790;2023-11-21T11:01:40;8.60;96.70
9373;DHT22;10838;52.350;9.790;2023-11-21T11:04:09;8.50;96.60
9373;DHT22;10838;52.350;9.790;2023-11-21T11:06:41;8.60;96.60
9373;DHT22;10838;52.350;9.790;2023-11-21T11:09:08;8.60;96.60
9373;DHT22;10838;52.350;9.790;2023-11-21T11:11:38;8.60;96.60
9373;DHT22;10838;52.350;9.790;2023-11-21T11:14:08;8.60;96.60
9373;DHT22;10838;52.350;9.790;2023-11-21T11:16:37;8.60;96.70
9373;DHT22;10838;52.350;9.790;2023-11-21T11:19:05;8.60;96.70
9373;DHT22;10838;52.350;9.790;2023-11-21T11:21:41;8.60;96.60
9373;DHT22;10838;52.350;9.790;2023-11-21T11:24:33;8.60;96.50
9373;DHT22;10838;52.350;9.790;2023-11-21T11:27:11;8.60;96.50
9373;DHT22;10838;52.350;9.790;2023-11-21T11:29:50;8.60;96.40
9373;DHT22;10838;52.350;9.790;2023-11-21T11:32:27;8.60;96.40
9373;DHT22;10838;52.350;9.790;2023-11-21T11:35:07;8.60;96.50
9373;DHT22;10838;52.350;9.790;2023-11-21T11:37:37;8.70;96.50
9373;DHT22;10838;52.350;9.790;2023-11-21T11:40:06;8.70;96.50
9373;DHT22;10838;52.350;9.790;2023-11-21T11:42:34;8.80;96.60
9373;DHT22;10838;52.350;9.790;2023-11-21T11:45:17;8.80;96.50
9373;DHT22;10838;52.350;9.790;2023-11-21T11:47:44;8.80;96.60
9373;DHT22;10838;52.350;9.790;2023-11-21T11:50:14;8.80;96.60
9373;DHT22;10838;52.350;9.790;2023-11-21T11:52:42;8.90;96.70
9373;DHT22;10838;52.350;9.790;2023-11-21T11:55:10;8.80;96.50
9373;DHT22;10838;52.350;9.790;2023-11-21T11:57:37;8.90;96.50
9373;DHT22;10838;52.350;9.790;2023-11-21T12:00:11;8.80;96.50
9373;DHT22;10838;52.350;9.790;2023-11-21T12:02:41;8.90;96.40
9373;DHT22;10838;52.350;9.790;2023-11-21T12:05:12;8.80;96.40
9373;DHT22;10838;52.350;9.790;2023-11-21T12:07:42;8.90;96.40
9373;DHT22;10838;52.350;9.790;2023-11-21T12:10:12;8.80;96.30
9373;DHT22;10838;52.350;9.790;2023-11-21T12:12:42;8.90;96.20
9373;DHT22;10838;52.350;9.790;2023-11-21T12:15:11;8.80;96.20
9373;DHT22;10838;52.350;9.790;2023-11-21T12:17:38;8.80;96.10
9373;DHT22;10838;52.350;9.790;2023-11-21T12:20:06;8.90;96.10
9373;DHT22;10838;52.350;9.790;2023-11-21T12:22:41;8.80;96.10
9373;DHT22;10838;52.350;9.790;2023-11-21T12:25:08;8.90;96.10
9373;DHT22;10838;52.350;9.790;2023-11-21T12:27:34;8.80;96.20
9373;DHT22;10838;52.350;9.790;2023-11-21T12:30:01;8.90;96.20
9373;DHT22;10838;52.350;9.790;2023-11-21T12:32:29;8.90;96.20
9373;DHT22;10838;52.350;9.790;2023-11-21T12:34:56;8.90;96.20
9373;DHT22;10838;52.350;9.790;2023-11-21T12:37:22;8.90;96.10
9373;DHT22;10838;52.350;9.790;2023-11-21T12:39:48;8.90;96.10
9373;DHT22;10838;52.350;9.790;2023-11-21T12:42:15;8.90;96.10
9373;DHT22;10838;52.350;9.790;2023-11-21T12:44:42;8.90;96.20
9373;DHT22;10838;52.350;9.790;2023-11-21T12:47:16;9.00;96.20
9373;DHT22;10838;52.350;9.790;2023-11-21T12:49:44;9.00;96.20
9373;DHT22;10838;52.350;9.790;2023-11-21T12:52:11;9.00;96.20
9373;DHT22;10838;52.350;9.790;2023-11-21T12:54:38;9.00;96.20
9373;DHT22;10838;52.350;9.790;2023-11-21T12:57:04;9.00;96.20
9373;DHT22;10838;52.350;9.790;2023-11-21T12:59:33;9.00;96.20
9373;DHT22;10838;52.350;9.790;2023-11-21T13:02:00;9.00;96.20
9373;DHT22;10838;52.350;9.790;2023-11-21T13:04:31;9.00;96.20
9373;DHT22;10838;52.350;9.790;2023-11-21T13:07:04;9.00;96.20
9373;DHT22;10838;52.350;9.790;2023-11-21T13:09:38;9.00;96.20
9373;DHT22;10838;52.350;9.790;2023-11-21T13:12:04;9.00;96.20
9373;DHT22;10838;52.350;9.790;2023-11-21T13:14:34;9.00;96.10
9373;DHT22;10838;52.350;9.790;2023-11-21T13:17:00;9.00;96.10
9373;DHT22;10838;52.350;9.790;2023-11-21T13:19:27;9.00;96.10
9373;DHT22;10838;52.350;9.790;2023-11-21T13:21:54;9.00;96.20
9373;DHT22;10838;52.350;9.790;2023-11-21T13:24:22;9.00;96.20
9373;DHT22;10838;52.350;9.790;2023-11-21T13:26:48;9.00;96.20
9373;DHT22;10838;52.350;9.790;2023-11-21T13:29:15;9.00;96.20
9373;DHT22;10838;52.350;9.790;2023-11-21T13:31:41;9.00;96.20
9373;DHT22;10838;52.350;9.790;2023-11-21T13:34:08;9.00;96.20
9373;DHT22;10838;52.350;9.790;2023-11-21T13:36:35;9.00;96.20
9373;DHT22;10838;52.350;9.790;2023-11-21T13:39:01;8.90;96.20
9373;DHT22;10838;52.350;9.790;2023-11-21T13:41:34;8.90;96.20
9373;DHT22;10838;52.350;9.790;2023-11-21T13:44:03;8.90;96.20
9373;DHT22;10838;52.350;9.790;2023-11-21T13:46:41;8.90;96.10
9373;DHT22;10838;52.350;9.790;2023-11-21T13:49:07;8.90;96.10
9373;DHT22;10838;52.350;9.790;2023-11-21T13:51:35;8.90;96.10
9373;DHT22;10838;52.350;9.790;2023-11-21T13:54:06;8.90;96.10
9373;DHT22;10838;52.350;9.790;2023-11-21T13:56:36;8.90;96.10
9373;DHT22;10838;52.350;9.790;2023-11-21T13:59:04;8.90;96.10
9373;DHT22;10838;52.350;9.790;2023-11-21T14:01:38;8.90;96.10
9373;DHT22;10838;52.350;9.790;2023-11-21T14:04:20;8.90;96.10
9373;DHT22;10838;52.350;9.790;2023-11-21T14:07:01;8.90;96.10
9373;DHT22;10838;52.350;9.790;2023-11-21T14:09:43;8.90;96.00
9373;DHT22;10838;52.350;9.790;2023-11-21T14:12:11;8.80;95.90
9373;DHT22;10838;52.350;9.790;2023-11-21T14:14:39;8.80;96.00
9373;DHT22;10838;52.350;9.790;2023-11-21T14:17:06;8.80;95.90
9373;DHT22;10838;52.350;9.790;2023-11-21T14:19:33;8.80;95.90
9373;DHT22;10838;52.350;9.790;2023-11-21T14:22:02;8.80;96.00
9373;DHT22;10838;52.350;9.790;2023-11-21T14:24:29;8.70;95.90
9373;DHT22;10838;52.350;9.790;2023-11-21T14:26:57;8.70;96.00
9373;DHT22;10838;52.350;9.790;2023-11-21T14:29:26;8.70;96.00
9373;DHT22;10838;52.350;9.790;2023-11-21T14:31:55;8.70;96.00
9373;DHT22;10838;52.350;9.790;2023-11-21T14:34:23;8.70;95.90
9373;DHT22;10838;52.350;9.790;2023-11-21T14:36:49;8.70;95.90
9373;DHT22;10838;52.350;9.790;2023-11-21T14:39:16;8.70;95.90
9373;DHT22;10838;52.350;9.790;2023-11-21T14:41:48;8.60;96.00
9373;DHT22;10838;52.350;9.790;2023-11-21T14:44:15;8.60;96.00
9373;DHT22;10838;52.350;9.790;2023-11-21T14:46:44;8.60;96.00
9373;DHT22;10838;52.350;9.790;2023-11-21T14:49:11;8.60;96.10
9373;DHT22;10838;52.350;9.790;2023-11-21T14:51:45;8.60;96.10
9373;DHT22;10838;52.350;9.790;2023-11-21T14:54:26;8.60;96.10
9373;DHT22;10838;52.350;9.790;2023-11-21T14:57:05;8.50;96.10
9373;DHT22;10838;52.350;9.790;2023-11-21T14:59:35;8.50;96.10
9373;DHT22;10838;52.350;9.790;2023-11-21T15:02:03;8.50;96.10
9373;DHT22;10838;52.350;9.790;2023-11-21T15:04:41;8.40;96.10
9373;DHT22;10838;52.350;9.790;2023-11-21T15:07:08;8.40;96.10
9373;DHT22;10838;52.350;9.790;2023-11-21T15:09:34;8.40;96.10
9373;DHT22;10838;52.350;9.790;2023-11-21T15:12:07;8.40;96.20
9373;DHT22;10838;52.350;9.790;2023-11-21T15:14:42;8.40;96.20
9373;DHT22;10838;52.350;9.790;2023-11-21T15:17:09;8.30;96.10
9373;DHT22;10838;52.350;9.790;2023-11-21T15:19:37;8.30;96.10
9373;DHT22;10838;52.350;9.790;2023-11-21T15:22:04;8.20;96.20
9373;DHT22;10838;52.350;9.790;2023-11-21T15:24:32;8.20;96.20
9373;DHT22;10838;52.350;9.790;2023-11-21T15:26:59;8.20;96.20
9373;DHT22;10838;52.350;9.790;2023-11-21T15:29:25;8.20;96.20
9373;DHT22;10838;52.350;9.790;2023-11-21T15:31:53;8.20;96.20
9373;DHT22;10838;52.350;9.790;2023-11-21T15:34:23;8.20;96.20
9373;DHT22;10838;52.350;9.790;2023-11-21T15:36:51;8.20;96.20
9373;DHT22;10838;52.350;9.790;2023-11-21T15:39:19;8.20;96.20
9373;DHT22;10838;52.350;9.790;2023-11-21T15:41:49;8.20;96.20
9373;DHT22;10838;52.350;9.790;2023-11-21T15:44:16;8.20;96.20
9373;DHT22;10838;52.350;9.790;2023-11-21T15:46:42;8.10;96.20
9373;DHT22;10838;52.350;9.790;2023-11-21T15:49:10;8.10;96.20
9373;DHT22;10838;52.350;9.790;2023-11-21T15:51:42;8.10;96.20
9373;DHT22;10838;52.350;9.790;2023-11-21T15:54:10;8.10;96.20
9373;DHT22;10838;52.350;9.790;2023-11-21T15:56:38;8.10;96.20
9373;DHT22;10838;52.350;9.790;2023-11-21T15:59:05;8.10;96.20
9373;DHT22;10838;52.350;9.790;2023-11-21T16:01:32;8.10;96.30
9373;DHT22;10838;52.350;9.790;2023-11-21T16:04:00;8.10;96.30
9373;DHT22;10838;52.350;9.790;2023-11-21T16:06:27;8.10;96.30
9373;DHT22;10838;52.350;9.790;2023-11-21T16:08:55;8.10;96.30